createdAt,value
2022-08-08T00:00:54.227Z,13.48
2022-08-08T00:00:54.519Z,13.47
2022-08-08T00:02:04.215Z,13.47
2022-08-08T00:02:38.520Z,13.41
2022-08-08T00:03:38.513Z,13.38
2022-08-08T00:04:37.518Z,13.32
2022-08-08T00:05:43.457Z,13.31
2022-08-08T00:06:38.476Z,13.27
2022-08-08T00:07:37.993Z,13.21
2022-08-08T00:08:37.440Z,13.21
2022-08-08T00:09:37.420Z,13.19
2022-08-08T00:10:37.419Z,13.19
2022-08-08T00:11:47.109Z,13.16
2022-08-08T00:12:38.389Z,13.14
2022-08-08T00:14:17.224Z,13.12
2022-08-08T00:14:59.017Z,13.09
2022-08-08T00:15:57.390Z,13.07
2022-08-08T00:16:38.358Z,13.06
2022-08-08T00:18:01.720Z,13.04
2022-08-08T00:18:38.331Z,13.03
2022-08-08T00:19:37.288Z,13.03
2022-08-08T00:20:37.430Z,12.99
2022-08-08T00:21:39.783Z,12.96
2022-08-08T00:22:39.808Z,12.95
2022-08-08T00:23:43.363Z,12.94
2022-08-08T00:24:38.217Z,12.92
2022-08-08T00:25:45.093Z,12.92
2022-08-08T00:26:38.208Z,12.89
2022-08-08T00:27:37.178Z,12.89
2022-08-08T00:28:37.167Z,12.88
2022-08-08T00:29:45.962Z,12.87
2022-08-08T00:30:45.219Z,12.81
2022-08-08T00:32:20.137Z,12.79
2022-08-08T00:32:38.118Z,12.76
2022-08-08T00:34:18.035Z,12.73
2022-08-08T00:34:38.086Z,12.71
2022-08-08T00:35:37.493Z,12.70
2022-08-08T00:36:37.078Z,12.71
2022-08-08T00:37:47.765Z,12.69
2022-08-08T00:38:44.336Z,12.67
2022-08-08T00:41:09.666Z,12.66
2022-08-08T00:41:10.901Z,12.66
2022-08-08T00:41:54.919Z,12.63
2022-08-08T00:42:41.831Z,12.62
2022-08-08T00:43:40.754Z,12.61
2022-08-08T00:44:36.986Z,12.61
2022-08-08T00:45:36.945Z,12.59
2022-08-08T00:46:57.497Z,12.56
2022-08-08T00:48:05.311Z,12.55
2022-08-08T00:48:37.905Z,12.55
2022-08-08T00:49:36.906Z,12.56
2022-08-08T00:50:40.894Z,12.56
2022-08-08T00:51:39.114Z,12.54
2022-08-08T00:52:39.428Z,12.54
2022-08-08T00:53:43.657Z,12.51
2022-08-08T00:54:37.825Z,12.51
2022-08-08T00:55:52.942Z,12.46
2022-08-08T00:56:37.836Z,12.46
2022-08-08T00:57:36.785Z,12.44
2022-08-08T00:58:36.766Z,12.41
2022-08-08T00:59:43.840Z,12.38
2022-08-08T01:00:38.029Z,12.38
2022-08-08T01:01:38.227Z,12.37
2022-08-08T01:03:59.157Z,12.34
2022-08-08T01:04:00.837Z,12.33
2022-08-08T01:04:37.695Z,12.33
2022-08-08T01:05:58.784Z,12.31
2022-08-08T01:06:37.764Z,12.33
2022-08-08T01:07:55.255Z,12.30
2022-08-08T01:08:37.655Z,12.29
2022-08-08T01:09:40.948Z,12.26
2022-08-08T01:10:37.624Z,12.23
2022-08-08T01:11:37.703Z,12.23
2022-08-08T01:12:36.584Z,12.21
2022-08-08T01:13:44.095Z,12.19
2022-08-08T01:14:54.910Z,12.16
2022-08-08T01:15:43.929Z,12.15
2022-08-08T01:16:37.528Z,12.16
2022-08-08T01:17:54.125Z,12.18
2022-08-08T01:18:53.686Z,12.18
2022-08-08T01:19:52.412Z,12.16
2022-08-08T01:20:37.496Z,12.13
2022-08-08T01:22:13.125Z,12.12
2022-08-08T01:22:37.722Z,12.08
2022-08-08T01:24:02.611Z,12.11
2022-08-08T01:24:37.460Z,12.08
2022-08-08T01:25:40.118Z,12.07
2022-08-08T01:26:36.409Z,12.05
2022-08-08T01:27:44.116Z,12.05
2022-08-08T01:28:38.392Z,12.05
2022-08-08T01:29:59.899Z,12.04
2022-08-08T01:30:37.363Z,12.00
2022-08-08T01:32:15.116Z,11.98
2022-08-08T01:32:37.334Z,11.97
2022-08-08T01:33:54.493Z,11.96
2022-08-08T01:34:37.295Z,11.94
2022-08-08T01:35:38.610Z,11.93
2022-08-08T01:36:36.295Z,11.90
2022-08-08T01:37:56.656Z,11.90
2022-08-08T01:38:37.242Z,11.87
2022-08-08T01:39:42.176Z,11.85
2022-08-08T01:40:37.280Z,11.84
2022-08-08T01:41:38.058Z,11.82
2022-08-08T01:42:36.906Z,11.79
2022-08-08T01:43:39.041Z,11.78
2022-08-08T01:44:36.160Z,11.75
2022-08-08T01:45:37.623Z,11.74
2022-08-08T01:46:36.134Z,11.72
2022-08-08T01:48:13.848Z,11.69
2022-08-08T01:48:37.112Z,11.67
2022-08-08T01:49:37.600Z,11.69
2022-08-08T01:50:37.162Z,11.69
2022-08-08T01:52:41.642Z,11.67
2022-08-08T01:53:55.189Z,11.67
2022-08-08T01:55:17.134Z,11.66
2022-08-08T01:55:17.637Z,11.64
2022-08-08T01:56:26.758Z,11.63
2022-08-08T01:56:37.482Z,11.62
2022-08-08T01:58:10.825Z,11.60
2022-08-08T01:58:39.590Z,11.57
2022-08-08T01:59:38.011Z,11.56
2022-08-08T02:00:37.009Z,11.54
2022-08-08T02:01:54.649Z,11.54
2022-08-08T02:02:41.548Z,11.51
2022-08-08T02:03:54.782Z,11.49
2022-08-08T02:04:36.917Z,11.48
2022-08-08T02:05:55.974Z,11.48
2022-08-08T02:06:43.372Z,11.48
2022-08-08T02:07:41.684Z,11.49
2022-08-08T02:08:36.851Z,11.49
2022-08-08T02:10:01.327Z,11.48
2022-08-08T02:10:44.572Z,11.48
2022-08-08T02:11:58.918Z,11.44
2022-08-08T02:12:36.905Z,11.41
2022-08-08T02:13:53.969Z,11.38
2022-08-08T02:14:55.033Z,11.38
2022-08-08T02:15:38.320Z,11.36
2022-08-08T02:16:35.740Z,11.38
2022-08-08T02:17:36.627Z,11.36
2022-08-08T02:18:36.711Z,11.35
2022-08-08T02:20:07.933Z,11.33
2022-08-08T02:21:01.358Z,11.30
2022-08-08T02:21:36.684Z,11.30
2022-08-08T02:22:52.480Z,11.28
2022-08-08T02:23:36.640Z,11.26
2022-08-08T02:24:35.678Z,11.24
2022-08-08T02:25:46.976Z,11.24
2022-08-08T02:26:36.615Z,11.24
2022-08-08T02:27:38.849Z,11.26
2022-08-08T02:28:36.587Z,11.26
2022-08-08T02:29:41.594Z,11.26
2022-08-08T02:30:36.578Z,11.27
2022-08-08T02:31:57.916Z,11.28
2022-08-08T02:32:36.896Z,11.27
2022-08-08T02:34:00.109Z,11.26
2022-08-08T02:34:36.520Z,11.23
2022-08-08T02:35:35.667Z,11.21
2022-08-08T02:36:36.486Z,11.20
2022-08-08T02:37:52.725Z,11.19
2022-08-08T02:38:36.447Z,11.17
2022-08-08T02:39:42.633Z,11.16
2022-08-08T02:40:36.525Z,11.13
2022-08-08T02:41:58.779Z,11.11
2022-08-08T02:42:41.572Z,11.09
2022-08-08T02:44:43.073Z,11.08
2022-08-08T02:44:56.676Z,11.05
2022-08-08T02:45:51.126Z,11.03
2022-08-08T02:46:36.346Z,11.02
2022-08-08T02:47:35.339Z,10.99
2022-08-08T02:48:35.330Z,10.98
2022-08-08T02:49:48.353Z,10.91
2022-08-08T02:50:36.290Z,10.91
2022-08-08T02:51:46.778Z,10.88
2022-08-08T02:52:38.761Z,10.88
2022-08-08T02:53:35.271Z,10.87
2022-08-08T02:54:35.253Z,10.86
2022-08-08T02:55:37.184Z,10.86
2022-08-08T02:56:35.235Z,10.84
2022-08-08T02:57:40.481Z,10.84
2022-08-08T02:58:36.819Z,10.81
2022-08-08T02:59:57.986Z,10.78
2022-08-08T03:00:36.551Z,10.80
2022-08-08T03:01:47.179Z,10.78
2022-08-08T03:02:36.787Z,10.76
2022-08-08T03:05:01.699Z,10.73
2022-08-08T03:05:04.670Z,10.75
2022-08-08T03:05:45.198Z,10.75
2022-08-08T03:06:36.088Z,10.78
2022-08-08T03:07:41.673Z,10.78
2022-08-08T03:08:36.064Z,10.76
2022-08-08T03:09:35.061Z,10.78
2022-08-08T03:10:44.407Z,10.78
2022-08-08T03:12:01.452Z,10.75
2022-08-08T03:13:00.994Z,10.73
2022-08-08T03:15:55.963Z,10.72
2022-08-08T03:15:56.574Z,10.70
2022-08-08T03:16:00.544Z,10.69
2022-08-08T03:16:37.304Z,10.68
2022-08-08T03:17:39.580Z,10.66
2022-08-08T03:18:35.934Z,10.65
2022-08-08T03:19:34.934Z,10.63
2022-08-08T03:20:34.913Z,10.65
2022-08-08T03:21:48.060Z,10.65
2022-08-08T03:22:38.626Z,10.65
2022-08-08T03:23:56.306Z,10.63
2022-08-08T03:24:35.879Z,10.62
2022-08-08T03:25:36.403Z,10.62
2022-08-08T03:26:41.921Z,10.60
2022-08-08T03:27:41.800Z,10.58
2022-08-08T03:28:35.792Z,10.55
2022-08-08T03:29:54.912Z,10.52
2022-08-08T03:30:35.791Z,10.49
2022-08-08T03:31:38.047Z,10.46
2022-08-08T03:32:35.744Z,10.43
2022-08-08T03:33:54.590Z,10.39
2022-08-08T03:34:35.737Z,10.39
2022-08-08T03:35:34.738Z,10.39
2022-08-08T03:36:34.692Z,10.38
2022-08-08T03:38:54.073Z,10.39
2022-08-08T03:38:56.356Z,10.36
2022-08-08T03:39:51.713Z,10.36
2022-08-08T03:40:35.700Z,10.39
2022-08-08T03:42:12.563Z,10.38
2022-08-08T03:42:35.611Z,10.39
2022-08-08T03:43:38.690Z,10.42
2022-08-08T03:44:35.607Z,10.39
2022-08-08T03:46:05.233Z,10.43
2022-08-08T03:46:35.591Z,10.43
2022-08-08T03:47:45.312Z,10.46
2022-08-08T03:49:09.448Z,10.43
2022-08-08T03:49:59.680Z,10.42
2022-08-08T03:50:35.526Z,10.42
2022-08-08T03:51:40.499Z,10.43
2022-08-08T03:52:35.779Z,10.42
2022-08-08T03:53:42.269Z,10.42
2022-08-08T03:54:41.759Z,10.42
2022-08-08T03:55:56.397Z,10.43
2022-08-08T03:56:35.690Z,10.44
2022-08-08T03:58:30.243Z,10.44
2022-08-08T03:58:37.770Z,10.46
2022-08-08T03:59:34.391Z,10.46
2022-08-08T04:00:35.390Z,10.44
2022-08-08T04:02:12.502Z,10.46
2022-08-08T04:02:51.527Z,10.44
2022-08-08T04:03:59.888Z,10.44
2022-08-08T04:04:35.463Z,10.46
2022-08-08T04:05:35.338Z,10.46
2022-08-08T04:06:34.309Z,10.44
2022-08-08T04:07:34.312Z,10.46
2022-08-08T04:08:34.572Z,10.46
2022-08-08T04:10:00.474Z,10.49
2022-08-08T04:10:35.251Z,10.52
2022-08-08T04:11:57.996Z,10.51
2022-08-08T04:12:35.222Z,10.51
2022-08-08T04:14:03.705Z,10.51
2022-08-08T04:14:36.324Z,10.51
2022-08-08T04:15:38.875Z,10.52
2022-08-08T04:16:40.704Z,10.52
2022-08-08T04:17:45.767Z,10.55
2022-08-08T04:18:44.997Z,10.58
2022-08-08T04:19:36.739Z,10.60
2022-08-08T04:20:34.102Z,10.62
2022-08-08T04:21:41.189Z,10.65
2022-08-08T04:22:35.517Z,10.66
2022-08-08T04:24:11.747Z,10.68
2022-08-08T04:24:35.051Z,10.68
2022-08-08T04:25:38.251Z,10.69
2022-08-08T04:26:40.268Z,10.72
2022-08-08T04:28:01.577Z,10.72
2022-08-08T04:28:40.266Z,10.76
2022-08-08T04:29:37.416Z,10.80
2022-08-08T04:30:36.734Z,10.81
2022-08-08T04:31:58.701Z,10.84
2022-08-08T04:32:34.980Z,10.87
2022-08-08T04:33:41.493Z,10.90
2022-08-08T04:34:49.477Z,10.93
2022-08-08T04:35:39.721Z,10.94
2022-08-08T04:36:34.897Z,10.98
2022-08-08T04:37:33.978Z,11.01
2022-08-08T04:38:33.899Z,11.02
2022-08-08T04:40:03.480Z,11.02
2022-08-08T04:40:34.865Z,11.02
2022-08-08T04:41:35.858Z,11.06
2022-08-08T04:42:33.860Z,11.08
2022-08-08T04:43:45.944Z,11.12
2022-08-08T04:44:34.797Z,11.19
2022-08-08T04:45:33.843Z,11.24
2022-08-08T04:46:33.769Z,11.28
2022-08-08T04:47:43.469Z,11.33
2022-08-08T04:48:34.771Z,11.38
2022-08-08T04:49:58.575Z,11.42
2022-08-08T04:50:37.958Z,11.56
2022-08-08T04:51:56.796Z,11.79
2022-08-08T04:52:35.362Z,12.23
2022-08-08T04:54:37.442Z,12.74
2022-08-08T04:54:39.317Z,13.24
2022-08-08T04:55:47.007Z,13.72
2022-08-08T04:56:34.670Z,14.20
2022-08-08T04:57:34.355Z,14.71
2022-08-08T04:58:33.680Z,15.19
2022-08-08T04:59:33.608Z,15.64
2022-08-08T05:00:34.586Z,16.06
2022-08-08T05:01:35.290Z,16.48
2022-08-08T05:02:33.943Z,16.92
2022-08-08T05:04:09.747Z,17.35
2022-08-08T05:04:34.559Z,17.79
2022-08-08T05:05:44.643Z,18.13
2022-08-08T05:06:36.335Z,18.53
2022-08-08T05:07:42.145Z,18.90
2022-08-08T05:08:34.511Z,19.30
2022-08-08T05:09:36.332Z,19.64
2022-08-08T05:10:33.464Z,20.00
2022-08-08T05:11:38.766Z,20.40
2022-08-08T05:12:34.876Z,20.72
2022-08-08T05:13:33.439Z,21.08
2022-08-08T05:14:33.413Z,21.40
2022-08-08T05:16:51.256Z,22.11
2022-08-08T05:16:53.441Z,21.71
2022-08-08T05:17:37.368Z,22.42
2022-08-08T05:18:34.362Z,22.70
2022-08-08T05:20:09.940Z,22.99
2022-08-08T05:20:38.855Z,23.31
2022-08-08T05:21:43.730Z,23.56
2022-08-08T05:22:34.314Z,23.82
2022-08-08T05:23:41.239Z,24.12
2022-08-08T05:24:34.288Z,24.41
2022-08-08T05:25:41.486Z,24.71
2022-08-08T05:26:34.257Z,25.01
2022-08-08T05:27:33.745Z,25.14
2022-08-08T05:28:56.745Z,25.22
2022-08-08T05:29:35.711Z,25.29
2022-08-08T05:30:33.225Z,25.44
2022-08-08T05:32:03.809Z,25.67
2022-08-08T05:32:36.489Z,25.89
2022-08-08T05:33:48.335Z,26.06
2022-08-08T05:34:34.153Z,26.31
2022-08-08T05:35:33.422Z,26.49
2022-08-08T05:36:33.123Z,26.71
2022-08-08T05:37:49.109Z,26.90
2022-08-08T05:38:34.119Z,27.03
2022-08-08T05:39:35.035Z,27.21
2022-08-08T05:40:33.075Z,27.38
2022-08-08T05:41:33.073Z,27.43
2022-08-08T05:42:34.450Z,27.62
2022-08-08T05:43:39.606Z,27.93
2022-08-08T05:44:34.014Z,28.15
2022-08-08T05:45:43.140Z,28.33
2022-08-08T05:46:33.993Z,28.58
2022-08-08T05:47:52.638Z,28.89
2022-08-08T05:48:34.661Z,29.27
2022-08-08T05:49:32.955Z,29.37
2022-08-08T05:50:33.945Z,29.52
2022-08-08T05:51:48.088Z,29.60
2022-08-08T05:52:35.805Z,29.82
2022-08-08T05:54:24.320Z,30.03
2022-08-08T05:54:43.316Z,30.06
2022-08-08T05:56:11.656Z,30.00
2022-08-08T05:56:33.868Z,30.16
2022-08-08T05:58:04.366Z,30.40
2022-08-08T05:58:34.055Z,30.46
2022-08-08T05:59:59.085Z,30.44
2022-08-08T06:00:34.204Z,30.49
2022-08-08T06:01:55.470Z,30.46
2022-08-08T06:02:33.811Z,30.44
2022-08-08T06:03:33.637Z,30.63
2022-08-08T06:04:32.768Z,30.78
2022-08-08T06:05:35.522Z,30.83
2022-08-08T06:06:32.772Z,31.03
2022-08-08T06:07:32.758Z,31.32
2022-08-08T06:08:34.490Z,31.57
2022-08-08T06:09:41.508Z,31.76
2022-08-08T06:10:34.765Z,31.98
2022-08-08T06:11:32.703Z,32.27
2022-08-08T06:12:32.939Z,32.41
2022-08-08T06:13:36.118Z,32.61
2022-08-08T06:14:33.640Z,32.65
2022-08-08T06:15:51.228Z,32.69
2022-08-08T06:16:33.628Z,32.90
2022-08-08T06:18:18.670Z,32.87
2022-08-08T06:18:33.591Z,33.05
2022-08-08T06:19:35.178Z,33.22
2022-08-08T06:20:32.562Z,33.45
2022-08-08T06:21:51.574Z,33.71
2022-08-08T06:22:33.755Z,33.84
2022-08-08T06:23:49.038Z,33.94
2022-08-08T06:24:36.136Z,34.05
2022-08-08T06:26:34.829Z,34.26
2022-08-08T06:26:43.797Z,34.36
2022-08-08T06:27:33.518Z,34.48
2022-08-08T06:28:32.478Z,34.56
2022-08-08T06:29:56.398Z,34.53
2022-08-08T06:30:33.448Z,34.48
2022-08-08T06:32:09.086Z,34.45
2022-08-08T06:32:33.433Z,34.48
2022-08-08T06:33:36.598Z,34.52
2022-08-08T06:34:33.390Z,34.58
2022-08-08T06:36:06.431Z,34.76
2022-08-08T06:36:36.215Z,34.94
2022-08-08T06:37:37.108Z,35.10
2022-08-08T06:38:32.377Z,35.22
2022-08-08T06:39:34.078Z,35.32
2022-08-08T06:40:32.341Z,35.44
2022-08-08T06:41:33.118Z,35.64
2022-08-08T06:42:32.317Z,35.89
2022-08-08T06:43:34.269Z,36.06
2022-08-08T06:44:32.270Z,36.22
2022-08-08T06:45:32.360Z,36.48
2022-08-08T06:46:32.254Z,36.65
2022-08-08T06:47:33.774Z,36.82
2022-08-08T06:48:33.220Z,36.99
2022-08-08T06:49:56.135Z,37.18
2022-08-08T06:50:33.917Z,37.28
2022-08-08T06:51:46.911Z,37.31
2022-08-08T06:52:33.183Z,37.20
2022-08-08T06:53:39.799Z,37.35
2022-08-08T06:54:33.156Z,37.58
2022-08-08T06:55:37.684Z,37.68
2022-08-08T06:56:33.155Z,37.59
2022-08-08T06:57:54.090Z,37.49
2022-08-08T06:58:33.628Z,37.56
2022-08-08T06:59:34.520Z,37.54
2022-08-08T07:00:33.083Z,37.23
2022-08-08T07:02:27.404Z,37.12
2022-08-08T07:02:33.169Z,36.77
2022-08-08T07:04:35.371Z,36.86
2022-08-08T07:04:41.419Z,37.02
2022-08-08T07:05:40.206Z,37.21
2022-08-08T07:06:33.062Z,37.27
2022-08-08T07:07:32.951Z,37.43
2022-08-08T07:08:32.991Z,37.65
2022-08-08T07:09:41.955Z,37.73
2022-08-08T07:10:32.977Z,37.82
2022-08-08T07:11:46.138Z,37.80
2022-08-08T07:12:32.971Z,37.77
2022-08-08T07:13:31.922Z,37.88
2022-08-08T07:14:31.916Z,38.10
2022-08-08T07:16:04.532Z,38.31
2022-08-08T07:16:32.903Z,38.47
2022-08-08T07:17:56.501Z,38.37
2022-08-08T07:18:36.161Z,38.14
2022-08-08T07:19:31.856Z,38.03
2022-08-08T07:20:31.858Z,37.77
2022-08-08T07:21:32.115Z,37.78
2022-08-08T07:22:31.816Z,37.99
2022-08-08T07:23:57.521Z,38.15
2022-08-08T07:24:32.799Z,38.24
2022-08-08T07:25:32.027Z,38.21
2022-08-08T07:26:35.184Z,38.12
2022-08-08T07:27:47.526Z,38.30
2022-08-08T07:28:32.788Z,38.52
2022-08-08T07:30:01.666Z,38.59
2022-08-08T07:30:32.733Z,38.56
2022-08-08T07:31:31.717Z,38.71
2022-08-08T07:32:31.719Z,38.82
2022-08-08T07:33:37.755Z,38.79
2022-08-08T07:34:32.744Z,38.75
2022-08-08T07:35:31.686Z,38.77
2022-08-08T07:36:31.683Z,38.74
2022-08-08T07:37:42.487Z,38.77
2022-08-08T07:38:32.639Z,38.72
2022-08-08T07:39:45.224Z,38.71
2022-08-08T07:40:32.982Z,38.84
2022-08-08T07:41:58.566Z,38.93
2022-08-08T07:42:33.013Z,38.97
2022-08-08T07:43:36.969Z,38.98
2022-08-08T07:44:38.113Z,38.87
2022-08-08T07:45:34.552Z,38.45
2022-08-08T07:46:31.577Z,38.06
2022-08-08T07:47:38.844Z,37.87
2022-08-08T07:48:32.568Z,37.82
2022-08-08T07:49:31.500Z,38.07
2022-08-08T07:50:31.494Z,38.37
2022-08-08T07:51:44.895Z,38.70
2022-08-08T07:52:32.483Z,38.98
2022-08-08T07:54:00.871Z,39.22
2022-08-08T07:54:32.468Z,39.38
2022-08-08T07:55:36.539Z,39.61
2022-08-08T07:56:35.443Z,39.69
2022-08-08T07:57:36.318Z,39.56
2022-08-08T07:58:32.402Z,39.43
2022-08-08T07:59:37.391Z,39.32
2022-08-08T08:00:32.377Z,39.12
2022-08-08T08:02:34.494Z,38.55
2022-08-08T08:02:35.996Z,37.97
2022-08-08T08:03:43.325Z,37.75
2022-08-08T08:04:32.362Z,37.70
2022-08-08T08:05:33.389Z,37.60
2022-08-08T08:06:31.306Z,37.35
2022-08-08T08:07:32.098Z,36.96
2022-08-08T08:08:32.287Z,36.67
2022-08-08T08:09:33.131Z,36.55
2022-08-08T08:10:33.371Z,36.77
2022-08-08T08:11:33.633Z,37.01
2022-08-08T08:12:35.718Z,36.97
2022-08-08T08:13:43.103Z,36.74
2022-08-08T08:14:32.214Z,36.46
2022-08-08T08:15:31.809Z,36.48
2022-08-08T08:16:32.230Z,36.48
2022-08-08T08:17:47.473Z,36.67
2022-08-08T08:18:33.836Z,36.79
2022-08-08T08:19:45.797Z,37.04
2022-08-08T08:20:32.157Z,37.38
2022-08-08T08:21:44.782Z,37.42
2022-08-08T08:22:33.482Z,37.18
2022-08-08T08:23:40.972Z,36.99
2022-08-08T08:24:35.262Z,36.94
2022-08-08T08:25:43.663Z,37.05
2022-08-08T08:26:32.092Z,37.23
2022-08-08T08:27:31.113Z,37.23
2022-08-08T08:28:31.048Z,37.21
2022-08-08T08:29:31.039Z,37.31
2022-08-08T08:30:31.085Z,37.15
2022-08-08T08:31:31.011Z,36.96
2022-08-08T08:32:36.617Z,36.78
2022-08-08T08:33:31.980Z,36.55
2022-08-08T08:34:32.189Z,36.49
2022-08-08T08:36:19.211Z,36.37
2022-08-08T08:36:31.980Z,36.23
2022-08-08T08:37:31.087Z,36.31
2022-08-08T08:38:30.932Z,36.34
2022-08-08T08:39:59.427Z,36.31
2022-08-08T08:40:32.022Z,36.37
2022-08-08T08:41:31.247Z,36.33
2022-08-08T08:42:35.238Z,36.19
2022-08-08T08:43:31.860Z,36.06
2022-08-08T08:44:30.851Z,35.59
2022-08-08T08:45:30.862Z,35.58
2022-08-08T08:46:30.824Z,35.76
2022-08-08T08:47:43.707Z,35.92
2022-08-08T08:48:31.811Z,35.93
2022-08-08T08:49:34.129Z,35.73
2022-08-08T08:50:33.745Z,35.46
2022-08-08T08:51:30.767Z,35.37
2022-08-08T08:52:30.767Z,35.37
2022-08-08T08:53:55.967Z,35.28
2022-08-08T08:54:32.411Z,35.18
2022-08-08T08:55:30.726Z,35.03
2022-08-08T08:56:31.705Z,35.00
2022-08-08T08:57:30.686Z,35.17
2022-08-08T08:58:30.687Z,35.36
2022-08-08T08:59:59.392Z,35.47
2022-08-08T09:00:49.824Z,35.62
2022-08-08T09:01:32.182Z,35.66
2022-08-08T09:02:30.627Z,35.68
2022-08-08T09:03:45.598Z,35.73
2022-08-08T09:04:38.662Z,35.61
2022-08-08T09:05:54.472Z,35.65
2022-08-08T09:06:34.325Z,35.69
2022-08-08T09:07:39.635Z,35.74
2022-08-08T09:08:31.566Z,35.80
2022-08-08T09:09:38.973Z,35.87
2022-08-08T09:10:31.554Z,35.87
2022-08-08T09:11:33.089Z,35.73
2022-08-08T09:12:30.509Z,35.54
2022-08-08T09:13:30.498Z,35.37
2022-08-08T09:14:30.503Z,35.24
2022-08-08T09:15:41.418Z,35.21
2022-08-08T09:16:32.878Z,35.07
2022-08-08T09:17:41.138Z,35.10
2022-08-08T09:18:31.437Z,35.05
2022-08-08T09:21:57.481Z,34.94
2022-08-08T09:21:58.837Z,34.94
2022-08-08T09:22:02.631Z,34.95
2022-08-08T09:22:31.439Z,35.00
2022-08-08T09:23:33.514Z,34.99
2022-08-08T09:24:31.418Z,34.87
2022-08-08T09:25:36.005Z,34.76
2022-08-08T09:26:32.452Z,34.73
2022-08-08T09:27:55.786Z,34.50
2022-08-08T09:28:38.443Z,34.45
2022-08-08T09:29:31.313Z,34.38
2022-08-08T09:30:30.291Z,34.34
2022-08-08T09:31:42.554Z,34.31
2022-08-08T09:32:31.365Z,34.23
2022-08-08T09:34:15.488Z,34.18
2022-08-08T09:34:34.938Z,34.24
2022-08-08T09:35:31.801Z,34.28
2022-08-08T09:36:30.245Z,34.37
2022-08-08T09:37:58.628Z,34.48
2022-08-08T09:38:32.087Z,34.46
2022-08-08T09:39:32.777Z,34.43
2022-08-08T09:40:44.097Z,34.45
2022-08-08T09:41:33.699Z,34.52
2022-08-08T09:42:31.144Z,34.58
2022-08-08T09:43:41.164Z,34.58
2022-08-08T09:44:34.270Z,34.56
2022-08-08T09:45:54.543Z,34.58
2022-08-08T09:46:32.064Z,34.61
2022-08-08T09:48:09.966Z,34.63
2022-08-08T09:48:35.407Z,34.64
2022-08-08T09:49:42.802Z,34.52
2022-08-08T09:50:34.596Z,34.27
2022-08-08T09:51:30.077Z,33.99
2022-08-08T09:53:14.466Z,33.63
2022-08-08T09:53:53.155Z,33.47
2022-08-08T09:54:37.611Z,33.44
2022-08-08T09:55:51.825Z,33.40
2022-08-08T09:56:30.979Z,33.20
2022-08-08T09:57:32.561Z,33.05
2022-08-08T09:58:41.640Z,33.12
2022-08-08T10:00:01.873Z,33.21
2022-08-08T10:00:49.717Z,33.37
2022-08-08T10:01:58.504Z,33.50
2022-08-08T10:02:31.096Z,33.66
2022-08-08T10:03:31.612Z,33.70
2022-08-08T10:04:41.340Z,33.68
2022-08-08T10:05:31.089Z,33.71
2022-08-08T10:06:29.924Z,33.78
2022-08-08T10:07:36.033Z,33.84
2022-08-08T10:08:30.907Z,33.81
2022-08-08T10:09:29.819Z,33.81
2022-08-08T10:10:31.831Z,33.81
2022-08-08T10:12:26.038Z,33.72
2022-08-08T10:12:37.945Z,33.60
2022-08-08T10:13:35.561Z,33.57
2022-08-08T10:14:38.181Z,33.66
2022-08-08T10:15:30.728Z,33.68
2022-08-08T10:16:29.731Z,33.55
2022-08-08T10:17:56.583Z,33.38
2022-08-08T10:18:30.798Z,33.14
2022-08-08T10:19:29.683Z,32.96
2022-08-08T10:20:41.383Z,32.90
2022-08-08T10:21:32.823Z,32.91
2022-08-08T10:22:32.039Z,32.91
2022-08-08T10:23:42.438Z,32.90
2022-08-08T10:24:35.203Z,32.90
2022-08-08T10:25:36.150Z,32.83
2022-08-08T10:26:56.770Z,32.78
2022-08-08T10:27:34.207Z,32.78
2022-08-08T10:28:29.604Z,32.68
2022-08-08T10:29:37.974Z,32.61
2022-08-08T10:31:00.357Z,32.51
2022-08-08T10:31:47.554Z,32.41
2022-08-08T10:32:30.637Z,32.34
2022-08-08T10:33:38.240Z,32.25
2022-08-08T10:34:30.506Z,32.28
2022-08-08T10:36:08.765Z,32.36
2022-08-08T10:36:31.036Z,32.43
2022-08-08T10:37:30.355Z,32.36
2022-08-08T10:38:36.519Z,32.44
2022-08-08T10:39:31.593Z,32.59
2022-08-08T10:40:30.896Z,32.62
2022-08-08T10:41:35.670Z,32.68
2022-08-08T10:42:30.612Z,32.68
2022-08-08T10:43:32.072Z,32.69
2022-08-08T10:44:30.374Z,32.71
2022-08-08T10:45:29.372Z,32.76
2022-08-08T10:46:30.794Z,32.68
2022-08-08T10:47:30.610Z,32.66
2022-08-08T10:48:30.358Z,32.61
2022-08-08T10:50:01.740Z,32.49
2022-08-08T10:50:30.767Z,32.41
2022-08-08T10:51:31.302Z,32.39
2022-08-08T10:52:31.122Z,32.44
2022-08-08T10:53:39.274Z,32.51
2022-08-08T10:54:30.256Z,32.58
2022-08-08T10:55:41.586Z,32.65
2022-08-08T10:56:34.440Z,32.76
2022-08-08T10:57:49.485Z,32.85
2022-08-08T10:58:30.219Z,32.87
2022-08-08T10:59:31.035Z,32.91
2022-08-08T11:00:29.200Z,32.88
2022-08-08T11:01:29.215Z,32.84
2022-08-08T11:02:29.516Z,32.84
2022-08-08T11:03:37.015Z,32.85
2022-08-08T11:04:39.160Z,32.88
2022-08-08T11:05:38.271Z,32.90
2022-08-08T11:06:30.120Z,32.98
2022-08-08T11:08:31.904Z,32.87
2022-08-08T11:08:40.935Z,32.80
2022-08-08T11:09:31.966Z,32.73
2022-08-08T11:10:29.760Z,32.65
2022-08-08T11:11:32.442Z,32.56
2022-08-08T11:12:30.138Z,32.62
2022-08-08T11:13:32.059Z,32.77
2022-08-08T11:14:29.031Z,32.81
2022-08-08T11:15:30.805Z,32.68
2022-08-08T11:16:32.400Z,32.50
2022-08-08T11:17:58.439Z,32.39
2022-08-08T11:18:30.217Z,32.25
2022-08-08T11:19:28.962Z,32.10
2022-08-08T11:20:28.947Z,32.05
2022-08-08T11:21:35.228Z,31.94
2022-08-08T11:22:30.129Z,31.88
2022-08-08T11:23:31.410Z,31.85
2022-08-08T11:24:29.023Z,31.91
2022-08-08T11:25:52.717Z,31.98
2022-08-08T11:26:29.853Z,32.03
2022-08-08T11:27:29.116Z,32.02
2022-08-08T11:28:31.722Z,32.07
2022-08-08T11:29:41.909Z,32.19
2022-08-08T11:30:31.740Z,32.31
2022-08-08T11:31:30.066Z,32.35
2022-08-08T11:32:30.569Z,32.24
2022-08-08T11:33:52.001Z,32.03
2022-08-08T11:34:41.881Z,31.82
2022-08-08T11:35:38.370Z,31.69
2022-08-08T11:36:29.725Z,31.65
2022-08-08T11:38:35.411Z,31.62
2022-08-08T11:38:39.056Z,31.67
2022-08-08T11:39:36.803Z,31.67
2022-08-08T11:40:31.447Z,31.60
2022-08-08T11:41:32.593Z,31.56
2022-08-08T11:42:31.257Z,31.54
2022-08-08T11:43:39.506Z,31.56
2022-08-08T11:44:29.671Z,31.57
2022-08-08T11:45:29.769Z,31.65
2022-08-08T11:46:30.625Z,31.74
2022-08-08T11:47:39.224Z,31.71
2022-08-08T11:48:29.607Z,31.62
2022-08-08T11:49:28.579Z,31.62
2022-08-08T11:50:29.769Z,31.69
2022-08-08T11:51:29.910Z,31.72
2022-08-08T11:52:31.943Z,31.79
2022-08-08T11:53:28.540Z,31.95
2022-08-08T11:54:33.301Z,32.10
2022-08-08T11:55:28.727Z,32.25
2022-08-08T11:56:28.488Z,32.36
2022-08-08T11:57:32.461Z,32.46
2022-08-08T11:58:29.472Z,32.58
2022-08-08T11:59:58.654Z,32.66
2022-08-08T12:00:29.447Z,32.77
2022-08-08T12:01:28.422Z,32.84
2022-08-08T12:02:32.603Z,32.91
2022-08-08T12:03:30.632Z,32.99
2022-08-08T12:04:28.383Z,33.05
2022-08-08T12:05:28.386Z,33.05
2022-08-08T12:06:28.351Z,33.03
2022-08-08T12:07:28.561Z,32.91
2022-08-08T12:08:28.345Z,32.85
2022-08-08T12:09:28.324Z,32.87
2022-08-08T12:10:29.304Z,32.90
2022-08-08T12:11:29.273Z,32.93
2022-08-08T12:12:29.179Z,32.95
2022-08-08T12:13:37.793Z,33.00
2022-08-08T12:14:29.541Z,33.00
2022-08-08T12:15:28.276Z,33.05
2022-08-08T12:16:34.270Z,33.11
2022-08-08T12:17:29.241Z,33.11
2022-08-08T12:18:29.218Z,33.00
2022-08-08T12:19:37.432Z,32.87
2022-08-08T12:20:29.196Z,32.71
2022-08-08T12:22:00.725Z,32.68
2022-08-08T12:22:35.741Z,32.65
2022-08-08T12:23:39.954Z,32.59
2022-08-08T12:24:29.920Z,32.53
2022-08-08T12:25:30.045Z,32.34
2022-08-08T12:26:35.861Z,32.24
2022-08-08T12:27:43.297Z,32.22
2022-08-08T12:28:29.098Z,32.25
2022-08-08T12:29:40.187Z,32.35
2022-08-08T12:30:29.098Z,32.29
2022-08-08T12:31:28.057Z,32.14
2022-08-08T12:32:31.343Z,32.05
2022-08-08T12:33:37.776Z,31.98
2022-08-08T12:34:35.967Z,31.99
2022-08-08T12:35:29.030Z,31.90
2022-08-08T12:36:28.625Z,31.84
2022-08-08T12:37:40.968Z,31.84
2022-08-08T12:38:30.400Z,31.90
2022-08-08T12:40:01.744Z,31.97
2022-08-08T12:40:29.014Z,32.05
2022-08-08T12:41:35.163Z,32.13
2022-08-08T12:42:33.772Z,32.21
2022-08-08T12:43:32.781Z,32.29
2022-08-08T12:44:32.173Z,32.35
2022-08-08T12:45:59.040Z,32.25
2022-08-08T12:46:29.189Z,32.24
2022-08-08T12:47:57.812Z,32.21
2022-08-08T12:48:37.189Z,32.14
2022-08-08T12:49:43.233Z,32.05
2022-08-08T12:50:28.820Z,31.98
2022-08-08T12:51:39.621Z,31.71